Terminal Aerodrome Forecast
Issued by NWS Jackson, MS

Home | Current Version | Previous Version | Text Only | Print | Product List | Glossary On
Versions: 1 2 3 4 5 6 7 8 9 10 11 12 13 14 15 16 17 18
000
FTUS44 KJAN 021700
TAFGLH
TAF
KGLH 021738Z 0218/0318 23008KT P6SM SHRA VCTS SCT025CB BKN100
      TEMPO 0220/0223 2SM +TSRA BKN020CB
     FM030100 21005KT P6SM BKN250
     FM030800 00000KT 5SM BR FEW250
     FM031400 25005KT P6SM SCT250=

USA.gov is the U.S. government's official web portal to all federal, state and local government web resources and services.